sensor_id;sensor_type;location;lat;lon;timestamp;P1;durP1;ratioP1;P2;durP2;ratioP2
36457;SDS011;22480;50.546;12.292;2022-07-29T00:01:35;5.38;;;2.38;;
36457;SDS011;22480;50.546;12.292;2022-07-29T00:04:01;2.85;;;2.13;;
36457;SDS011;22480;50.546;12.292;2022-07-29T00:06:26;6.40;;;2.58;;
36457;SDS011;22480;50.546;12.292;2022-07-29T00:08:52;3.40;;;2.13;;
36457;SDS011;22480;50.546;12.292;2022-07-29T00:11:18;3.85;;;2.20;;
36457;SDS011;22480;50.546;12.292;2022-07-29T00:13:43;5.18;;;2.42;;
36457;SDS011;22480;50.546;12.292;2022-07-29T00:16:09;4.07;;;2.05;;
36457;SDS011;22480;50.546;12.292;2022-07-29T00:18:35;2.97;;;1.80;;
36457;SDS011;22480;50.546;12.292;2022-07-29T00:21:00;3.85;;;2.00;;
36457;SDS011;22480;50.546;12.292;2022-07-29T00:23:26;2.70;;;1.67;;
36457;SDS011;22480;50.546;12.292;2022-07-29T00:25:51;3.10;;;1.60;;
36457;SDS011;22480;50.546;12.292;2022-07-29T00:28:17;7.15;;;2.30;;
36457;SDS011;22480;50.546;12.292;2022-07-29T00:30:43;3.53;;;2.05;;
36457;SDS011;22480;50.546;12.292;2022-07-29T00:33:09;2.22;;;1.50;;
36457;SDS011;22480;50.546;12.292;2022-07-29T00:35:35;7.10;;;2.80;;
36457;SDS011;22480;50.546;12.292;2022-07-29T00:38:13;5.30;;;2.00;;
36457;SDS011;22480;50.546;12.292;2022-07-29T00:40:41;3.53;;;2.05;;
36457;SDS011;22480;50.546;12.292;2022-07-29T00:43:07;6.07;;;2.42;;
36457;SDS011;22480;50.546;12.292;2022-07-29T00:45:33;3.58;;;2.30;;
36457;SDS011;22480;50.546;12.292;2022-07-29T00:47:58;4.25;;;2.50;;
36457;SDS011;22480;50.546;12.292;2022-07-29T00:50:24;3.42;;;2.13;;
36457;SDS011;22480;50.546;12.292;2022-07-29T00:52:50;5.97;;;2.53;;
36457;SDS011;22480;50.546;12.292;2022-07-29T00:55:17;5.13;;;2.92;;
36457;SDS011;22480;50.546;12.292;2022-07-29T00:57:43;3.92;;;2.40;;
36457;SDS011;22480;50.546;12.292;2022-07-29T01:00:11;4.05;;;2.58;;
36457;SDS011;22480;50.546;12.292;2022-07-29T01:02:39;4.85;;;2.70;;
36457;SDS011;22480;50.546;12.292;2022-07-29T01:05:05;5.20;;;2.83;;
36457;SDS011;22480;50.546;12.292;2022-07-29T01:07:32;4.65;;;2.70;;
36457;SDS011;22480;50.546;12.292;2022-07-29T01:10:00;7.45;;;2.88;;
36457;SDS011;22480;50.546;12.292;2022-07-29T01:12:28;5.03;;;2.60;;
36457;SDS011;22480;50.546;12.292;2022-07-29T01:14:56;7.38;;;2.72;;
36457;SDS011;22480;50.546;12.292;2022-07-29T01:17:25;3.42;;;2.33;;
36457;SDS011;22480;50.546;12.292;2022-07-29T01:25:40;3.65;;;2.13;;
36457;SDS011;22480;50.546;12.292;2022-07-29T01:31:03;4.80;;;2.45;;
36457;SDS011;22480;50.546;12.292;2022-07-29T01:33:32;5.57;;;2.20;;
36457;SDS011;22480;50.546;12.292;2022-07-29T01:36:18;5.10;;;2.40;;
36457;SDS011;22480;50.546;12.292;2022-07-29T01:38:51;3.95;;;2.45;;
36457;SDS011;22480;50.546;12.292;2022-07-29T01:41:59;7.68;;;2.75;;
36457;SDS011;22480;50.546;12.292;2022-07-29T01:44:33;2.60;;;1.98;;
36457;SDS011;22480;50.546;12.292;2022-07-29T01:47:04;2.97;;;2.13;;
36457;SDS011;22480;50.546;12.292;2022-07-29T01:49:36;5.07;;;2.20;;
36457;SDS011;22480;50.546;12.292;2022-07-29T01:52:13;3.03;;;1.92;;
36457;SDS011;22480;50.546;12.292;2022-07-29T01:54:55;5.38;;;2.55;;
36457;SDS011;22480;50.546;12.292;2022-07-29T01:57:25;3.63;;;2.50;;
36457;SDS011;22480;50.546;12.292;2022-07-29T01:59:54;5.65;;;2.78;;
36457;SDS011;22480;50.546;12.292;2022-07-29T02:02:22;6.25;;;2.97;;
36457;SDS011;22480;50.546;12.292;2022-07-29T02:04:49;5.53;;;3.03;;
36457;SDS011;22480;50.546;12.292;2022-07-29T02:07:18;3.95;;;2.75;;
36457;SDS011;22480;50.546;12.292;2022-07-29T02:09:46;3.97;;;3.00;;
36457;SDS011;22480;50.546;12.292;2022-07-29T02:12:14;6.10;;;2.60;;
36457;SDS011;22480;50.546;12.292;2022-07-29T02:14:44;5.13;;;2.67;;
36457;SDS011;22480;50.546;12.292;2022-07-29T02:17:13;5.43;;;2.55;;
36457;SDS011;22480;50.546;12.292;2022-07-29T02:19:42;5.22;;;2.95;;
36457;SDS011;22480;50.546;12.292;2022-07-29T02:22:09;5.15;;;2.80;;
36457;SDS011;22480;50.546;12.292;2022-07-29T02:24:37;4.45;;;2.70;;
36457;SDS011;22480;50.546;12.292;2022-07-29T02:27:05;6.72;;;2.40;;
36457;SDS011;22480;50.546;12.292;2022-07-29T02:29:33;4.28;;;2.50;;
36457;SDS011;22480;50.546;12.292;2022-07-29T02:32:00;4.80;;;2.80;;
36457;SDS011;22480;50.546;12.292;2022-07-29T02:34:28;5.47;;;3.20;;
36457;SDS011;22480;50.546;12.292;2022-07-29T02:36:55;3.03;;;2.25;;
36457;SDS011;22480;50.546;12.292;2022-07-29T02:39:21;4.45;;;2.55;;
36457;SDS011;22480;50.546;12.292;2022-07-29T02:41:54;4.15;;;2.67;;
36457;SDS011;22480;50.546;12.292;2022-07-29T02:44:24;5.43;;;2.58;;
36457;SDS011;22480;50.546;12.292;2022-07-29T02:49:35;6.15;;;3.05;;
36457;SDS011;22480;50.546;12.292;2022-07-29T02:52:18;3.35;;;2.20;;
36457;SDS011;22480;50.546;12.292;2022-07-29T02:55:01;4.45;;;2.65;;
36457;SDS011;22480;50.546;12.292;2022-07-29T03:00:06;5.07;;;2.45;;
36457;SDS011;22480;50.546;12.292;2022-07-29T03:02:34;9.75;;;2.17;;
36457;SDS011;22480;50.546;12.292;2022-07-29T03:05:03;4.22;;;2.17;;
36457;SDS011;22480;50.546;12.292;2022-07-29T03:07:31;3.40;;;2.20;;
36457;SDS011;22480;50.546;12.292;2022-07-29T03:09:58;2.47;;;1.85;;
36457;SDS011;22480;50.546;12.292;2022-07-29T03:12:24;3.58;;;2.10;;
36457;SDS011;22480;50.546;12.292;2022-07-29T03:14:51;4.55;;;1.95;;
36457;SDS011;22480;50.546;12.292;2022-07-29T03:17:18;3.28;;;2.38;;
36457;SDS011;22480;50.546;12.292;2022-07-29T03:19:44;4.28;;;2.20;;
36457;SDS011;22480;50.546;12.292;2022-07-29T03:22:10;6.05;;;3.05;;
36457;SDS011;22480;50.546;12.292;2022-07-29T03:24:36;4.32;;;2.58;;
36457;SDS011;22480;50.546;12.292;2022-07-29T03:27:03;6.30;;;2.53;;
36457;SDS011;22480;50.546;12.292;2022-07-29T03:29:30;4.38;;;2.50;;
36457;SDS011;22480;50.546;12.292;2022-07-29T03:31:56;5.10;;;2.70;;
36457;SDS011;22480;50.546;12.292;2022-07-29T03:34:22;3.58;;;2.65;;
36457;SDS011;22480;50.546;12.292;2022-07-29T03:36:48;4.80;;;2.40;;
36457;SDS011;22480;50.546;12.292;2022-07-29T03:39:18;5.90;;;2.53;;
36457;SDS011;22480;50.546;12.292;2022-07-29T03:41:47;7.65;;;2.40;;
36457;SDS011;22480;50.546;12.292;2022-07-29T03:44:16;4.32;;;2.65;;
36457;SDS011;22480;50.546;12.292;2022-07-29T03:46:43;4.10;;;2.65;;
36457;SDS011;22480;50.546;12.292;2022-07-29T03:49:10;3.47;;;2.67;;
36457;SDS011;22480;50.546;12.292;2022-07-29T03:51:39;5.05;;;2.75;;
36457;SDS011;22480;50.546;12.292;2022-07-29T03:54:05;12.00;;;7.07;;
36457;SDS011;22480;50.546;12.292;2022-07-29T03:56:32;8.05;;;4.60;;
36457;SDS011;22480;50.546;12.292;2022-07-29T03:59:02;11.35;;;4.60;;
36457;SDS011;22480;50.546;12.292;2022-07-29T04:01:29;6.22;;;4.53;;
36457;SDS011;22480;50.546;12.292;2022-07-29T04:03:57;4.82;;;3.60;;
36457;SDS011;22480;50.546;12.292;2022-07-29T04:06:23;5.85;;;3.55;;
36457;SDS011;22480;50.546;12.292;2022-07-29T04:08:50;4.85;;;2.78;;
36457;SDS011;22480;50.546;12.292;2022-07-29T04:11:16;4.15;;;2.47;;
36457;SDS011;22480;50.546;12.292;2022-07-29T04:13:42;5.15;;;2.63;;
36457;SDS011;22480;50.546;12.292;2022-07-29T04:16:07;2.75;;;2.17;;
36457;SDS011;22480;50.546;12.292;2022-07-29T04:18:33;2.97;;;2.03;;
36457;SDS011;22480;50.546;12.292;2022-07-29T04:20:59;5.15;;;2.70;;
36457;SDS011;22480;50.546;12.292;2022-07-29T04:23:26;9.57;;;3.35;;
36457;SDS011;22480;50.546;12.292;2022-07-29T04:25:52;12.95;;;3.28;;
36457;SDS011;22480;50.546;12.292;2022-07-29T04:28:18;13.40;;;3.10;;
36457;SDS011;22480;50.546;12.292;2022-07-29T04:30:43;6.68;;;3.47;;
36457;SDS011;22480;50.546;12.292;2022-07-29T04:33:09;10.32;;;3.72;;
36457;SDS011;22480;50.546;12.292;2022-07-29T04:35:38;5.47;;;3.35;;
36457;SDS011;22480;50.546;12.292;2022-07-29T04:38:04;8.68;;;4.22;;
36457;SDS011;22480;50.546;12.292;2022-07-29T04:40:31;4.53;;;2.75;;
36457;SDS011;22480;50.546;12.292;2022-07-29T04:42:58;5.30;;;3.00;;
36457;SDS011;22480;50.546;12.292;2022-07-29T04:45:24;3.85;;;2.70;;
36457;SDS011;22480;50.546;12.292;2022-07-29T04:47:50;4.70;;;2.65;;
36457;SDS011;22480;50.546;12.292;2022-07-29T04:50:16;4.55;;;2.55;;
36457;SDS011;22480;50.546;12.292;2022-07-29T04:52:43;5.30;;;2.90;;
36457;SDS011;22480;50.546;12.292;2022-07-29T04:55:08;6.93;;;3.15;;
36457;SDS011;22480;50.546;12.292;2022-07-29T04:57:34;4.30;;;2.75;;
36457;SDS011;22480;50.546;12.292;2022-07-29T05:00:00;3.20;;;2.15;;
36457;SDS011;22480;50.546;12.292;2022-07-29T05:02:26;4.45;;;2.65;;
36457;SDS011;22480;50.546;12.292;2022-07-29T05:04:52;5.90;;;2.28;;
36457;SDS011;22480;50.546;12.292;2022-07-29T05:07:18;13.73;;;2.83;;
36457;SDS011;22480;50.546;12.292;2022-07-29T05:09:43;5.72;;;3.15;;
36457;SDS011;22480;50.546;12.292;2022-07-29T05:12:09;5.60;;;3.10;;
36457;SDS011;22480;50.546;12.292;2022-07-29T05:14:35;3.72;;;2.45;;
36457;SDS011;22480;50.546;12.292;2022-07-29T05:17:01;8.10;;;2.60;;
36457;SDS011;22480;50.546;12.292;2022-07-29T05:19:27;9.82;;;3.42;;
36457;SDS011;22480;50.546;12.292;2022-07-29T05:21:52;11.90;;;3.10;;
36457;SDS011;22480;50.546;12.292;2022-07-29T05:24:18;10.57;;;3.22;;
36457;SDS011;22480;50.546;12.292;2022-07-29T05:26:44;14.18;;;3.72;;
36457;SDS011;22480;50.546;12.292;2022-07-29T05:29:09;10.98;;;3.92;;
36457;SDS011;22480;50.546;12.292;2022-07-29T05:31:36;10.07;;;3.72;;
36457;SDS011;22480;50.546;12.292;2022-07-29T05:34:01;8.35;;;3.13;;
36457;SDS011;22480;50.546;12.292;2022-07-29T05:36:27;7.78;;;3.00;;
36457;SDS011;22480;50.546;12.292;2022-07-29T05:38:53;6.45;;;3.33;;
36457;SDS011;22480;50.546;12.292;2022-07-29T05:41:19;4.22;;;2.40;;
36457;SDS011;22480;50.546;12.292;2022-07-29T05:43:44;10.75;;;3.20;;
36457;SDS011;22480;50.546;12.292;2022-07-29T05:46:10;9.00;;;3.17;;
36457;SDS011;22480;50.546;12.292;2022-07-29T05:48:36;11.18;;;3.05;;
36457;SDS011;22480;50.546;12.292;2022-07-29T05:51:01;6.50;;;2.92;;
36457;SDS011;22480;50.546;12.292;2022-07-29T05:53:27;8.75;;;3.42;;
36457;SDS011;22480;50.546;12.292;2022-07-29T05:55:53;13.07;;;3.53;;
36457;SDS011;22480;50.546;12.292;2022-07-29T05:58:19;8.02;;;2.80;;
36457;SDS011;22480;50.546;12.292;2022-07-29T06:00:46;12.65;;;2.80;;
36457;SDS011;22480;50.546;12.292;2022-07-29T06:03:12;6.57;;;2.78;;
36457;SDS011;22480;50.546;12.292;2022-07-29T06:05:37;5.68;;;2.55;;
36457;SDS011;22480;50.546;12.292;2022-07-29T06:08:03;6.88;;;2.97;;
36457;SDS011;22480;50.546;12.292;2022-07-29T06:10:32;6.25;;;2.67;;
36457;SDS011;22480;50.546;12.292;2022-07-29T06:12:59;4.93;;;2.70;;
36457;SDS011;22480;50.546;12.292;2022-07-29T06:15:25;7.28;;;2.65;;
36457;SDS011;22480;50.546;12.292;2022-07-29T06:17:51;6.15;;;2.47;;
36457;SDS011;22480;50.546;12.292;2022-07-29T06:20:17;9.10;;;3.58;;
36457;SDS011;22480;50.546;12.292;2022-07-29T06:22:43;6.68;;;2.88;;
36457;SDS011;22480;50.546;12.292;2022-07-29T06:25:09;6.40;;;2.88;;
36457;SDS011;22480;50.546;12.292;2022-07-29T06:27:35;8.93;;;2.78;;
36457;SDS011;22480;50.546;12.292;2022-07-29T06:30:00;12.38;;;3.03;;
36457;SDS011;22480;50.546;12.292;2022-07-29T06:32:27;5.60;;;3.20;;
36457;SDS011;22480;50.546;12.292;2022-07-29T06:34:52;9.93;;;3.45;;
36457;SDS011;22480;50.546;12.292;2022-07-29T06:37:18;4.00;;;2.83;;
36457;SDS011;22480;50.546;12.292;2022-07-29T06:39:44;4.75;;;2.80;;
36457;SDS011;22480;50.546;12.292;2022-07-29T06:42:09;6.43;;;2.85;;
36457;SDS011;22480;50.546;12.292;2022-07-29T06:44:35;16.20;;;3.22;;
36457;SDS011;22480;50.546;12.292;2022-07-29T06:47:01;6.13;;;3.08;;
36457;SDS011;22480;50.546;12.292;2022-07-29T06:49:27;9.02;;;3.00;;
36457;SDS011;22480;50.546;12.292;2022-07-29T06:51:53;9.57;;;2.28;;
36457;SDS011;22480;50.546;12.292;2022-07-29T06:54:20;6.13;;;2.38;;
36457;SDS011;22480;50.546;12.292;2022-07-29T06:56:46;6.07;;;2.70;;
36457;SDS011;22480;50.546;12.292;2022-07-29T06:59:12;5.65;;;2.50;;
36457;SDS011;22480;50.546;12.292;2022-07-29T07:01:39;3.45;;;2.20;;
36457;SDS011;22480;50.546;12.292;2022-07-29T07:04:06;9.18;;;2.40;;
36457;SDS011;22480;50.546;12.292;2022-07-29T07:06:33;6.55;;;2.25;;
36457;SDS011;22480;50.546;12.292;2022-07-29T07:08:59;8.27;;;2.65;;
36457;SDS011;22480;50.546;12.292;2022-07-29T07:11:25;4.78;;;2.35;;
36457;SDS011;22480;50.546;12.292;2022-07-29T07:13:51;6.00;;;2.83;;
36457;SDS011;22480;50.546;12.292;2022-07-29T07:16:16;5.18;;;2.45;;
36457;SDS011;22480;50.546;12.292;2022-07-29T07:18:42;4.68;;;2.58;;
36457;SDS011;22480;50.546;12.292;2022-07-29T07:21:10;2.70;;;2.15;;
36457;SDS011;22480;50.546;12.292;2022-07-29T07:23:36;5.00;;;2.50;;
36457;SDS011;22480;50.546;12.292;2022-07-29T07:26:02;4.65;;;2.63;;
36457;SDS011;22480;50.546;12.292;2022-07-29T07:28:28;5.95;;;2.22;;
36457;SDS011;22480;50.546;12.292;2022-07-29T07:30:54;4.97;;;2.20;;
36457;SDS011;22480;50.546;12.292;2022-07-29T07:33:20;4.30;;;2.15;;
36457;SDS011;22480;50.546;12.292;2022-07-29T07:35:46;4.63;;;2.15;;
36457;SDS011;22480;50.546;12.292;2022-07-29T07:38:12;6.65;;;2.03;;
36457;SDS011;22480;50.546;12.292;2022-07-29T07:40:37;4.45;;;2.13;;
36457;SDS011;22480;50.546;12.292;2022-07-29T07:43:03;7.65;;;2.28;;
36457;SDS011;22480;50.546;12.292;2022-07-29T07:45:29;4.57;;;2.10;;
36457;SDS011;22480;50.546;12.292;2022-07-29T07:47:57;6.20;;;1.92;;
36457;SDS011;22480;50.546;12.292;2022-07-29T07:50:23;3.55;;;1.67;;
36457;SDS011;22480;50.546;12.292;2022-07-29T07:52:49;3.50;;;1.95;;
36457;SDS011;22480;50.546;12.292;2022-07-29T07:55:18;5.50;;;2.70;;
36457;SDS011;22480;50.546;12.292;2022-07-29T07:57:44;4.22;;;1.85;;
36457;SDS011;22480;50.546;12.292;2022-07-29T08:00:11;7.72;;;2.38;;
36457;SDS011;22480;50.546;12.292;2022-07-29T08:02:38;4.95;;;1.98;;
36457;SDS011;22480;50.546;12.292;2022-07-29T08:05:05;10.77;;;2.33;;
36457;SDS011;22480;50.546;12.292;2022-07-29T08:07:32;6.68;;;1.98;;
36457;SDS011;22480;50.546;12.292;2022-07-29T08:09:58;4.25;;;2.22;;
36457;SDS011;22480;50.546;12.292;2022-07-29T08:12:23;5.18;;;2.00;;
36457;SDS011;22480;50.546;12.292;2022-07-29T08:14:49;5.53;;;2.40;;
36457;SDS011;22480;50.546;12.292;2022-07-29T08:17:15;3.60;;;2.00;;
36457;SDS011;22480;50.546;12.292;2022-07-29T08:19:41;3.67;;;1.98;;
36457;SDS011;22480;50.546;12.292;2022-07-29T08:22:06;4.78;;;2.30;;
36457;SDS011;22480;50.546;12.292;2022-07-29T08:24:32;3.08;;;1.65;;
36457;SDS011;22480;50.546;12.292;2022-07-29T08:27:17;5.18;;;1.90;;
36457;SDS011;22480;50.546;12.292;2022-07-29T08:29:44;4.18;;;1.80;;
36457;SDS011;22480;50.546;12.292;2022-07-29T08:32:09;3.95;;;2.38;;
36457;SDS011;22480;50.546;12.292;2022-07-29T08:34:35;6.07;;;1.92;;
36457;SDS011;22480;50.546;12.292;2022-07-29T08:37:01;7.13;;;1.55;;
36457;SDS011;22480;50.546;12.292;2022-07-29T08:39:26;8.02;;;2.17;;
36457;SDS011;22480;50.546;12.292;2022-07-29T08:41:52;6.15;;;1.73;;
36457;SDS011;22480;50.546;12.292;2022-07-29T08:44:20;6.00;;;1.98;;
36457;SDS011;22480;50.546;12.292;2022-07-29T08:46:46;3.63;;;1.83;;
36457;SDS011;22480;50.546;12.292;2022-07-29T08:49:13;6.43;;;2.00;;
36457;SDS011;22480;50.546;12.292;2022-07-29T08:51:39;3.65;;;2.00;;
36457;SDS011;22480;50.546;12.292;2022-07-29T08:54:06;5.95;;;2.28;;
36457;SDS011;22480;50.546;12.292;2022-07-29T08:56:33;3.65;;;2.30;;
36457;SDS011;22480;50.546;12.292;2022-07-29T08:59:00;3.38;;;2.10;;
36457;SDS011;22480;50.546;12.292;2022-07-29T09:01:29;5.68;;;1.70;;
36457;SDS011;22480;50.546;12.292;2022-07-29T09:03:57;3.58;;;1.90;;
36457;SDS011;22480;50.546;12.292;2022-07-29T09:06:26;4.88;;;2.00;;
36457;SDS011;22480;50.546;12.292;2022-07-29T09:08:58;3.35;;;1.85;;
36457;SDS011;22480;50.546;12.292;2022-07-29T09:11:25;3.00;;;2.05;;
36457;SDS011;22480;50.546;12.292;2022-07-29T09:13:51;2.53;;;2.10;;
36457;SDS011;22480;50.546;12.292;2022-07-29T09:16:17;5.20;;;1.58;;
36457;SDS011;22480;50.546;12.292;2022-07-29T09:18:43;7.68;;;2.83;;
36457;SDS011;22480;50.546;12.292;2022-07-29T09:21:11;2.72;;;2.05;;
36457;SDS011;22480;50.546;12.292;2022-07-29T09:24:01;3.22;;;2.03;;
36457;SDS011;22480;50.546;12.292;2022-07-29T09:26:37;2.83;;;1.83;;
36457;SDS011;22480;50.546;12.292;2022-07-29T09:29:08;2.17;;;2.00;;
36457;SDS011;22480;50.546;12.292;2022-07-29T09:31:37;4.68;;;2.40;;
36457;SDS011;22480;50.546;12.292;2022-07-29T09:34:04;6.40;;;2.20;;
36457;SDS011;22480;50.546;12.292;2022-07-29T09:36:30;6.18;;;2.13;;
36457;SDS011;22480;50.546;12.292;2022-07-29T09:39:03;4.65;;;2.38;;
36457;SDS011;22480;50.546;12.292;2022-07-29T09:41:29;5.53;;;2.40;;
36457;SDS011;22480;50.546;12.292;2022-07-29T09:44:08;2.67;;;2.30;;
36457;SDS011;22480;50.546;12.292;2022-07-29T09:46:34;5.03;;;2.30;;
36457;SDS011;22480;50.546;12.292;2022-07-29T09:49:11;4.43;;;2.13;;
36457;SDS011;22480;50.546;12.292;2022-07-29T09:51:38;5.68;;;2.22;;
36457;SDS011;22480;50.546;12.292;2022-07-29T09:54:23;6.35;;;2.47;;
36457;SDS011;22480;50.546;12.292;2022-07-29T09:56:54;2.95;;;2.33;;
36457;SDS011;22480;50.546;12.292;2022-07-29T09:59:20;4.70;;;2.58;;
36457;SDS011;22480;50.546;12.292;2022-07-29T10:01:48;4.18;;;2.70;;
36457;SDS011;22480;50.546;12.292;2022-07-29T10:04:15;4.25;;;2.33;;
36457;SDS011;22480;50.546;12.292;2022-07-29T10:06:57;4.38;;;2.40;;
36457;SDS011;22480;50.546;12.292;2022-07-29T10:09:22;7.15;;;2.70;;
36457;SDS011;22480;50.546;12.292;2022-07-29T10:14:36;5.28;;;2.10;;
36457;SDS011;22480;50.546;12.292;2022-07-29T10:17:02;2.25;;;2.05;;
36457;SDS011;22480;50.546;12.292;2022-07-29T10:19:29;1.92;;;1.58;;
36457;SDS011;22480;50.546;12.292;2022-07-29T10:21:57;3.40;;;1.95;;
36457;SDS011;22480;50.546;12.292;2022-07-29T10:24:26;7.95;;;2.50;;
36457;SDS011;22480;50.546;12.292;2022-07-29T10:26:56;4.40;;;2.20;;
36457;SDS011;22480;50.546;12.292;2022-07-29T10:29:23;3.60;;;2.00;;
36457;SDS011;22480;50.546;12.292;2022-07-29T10:40:41;7.25;;;2.70;;
36457;SDS011;22480;50.546;12.292;2022-07-29T10:43:50;4.43;;;2.28;;
36457;SDS011;22480;50.546;12.292;2022-07-29T10:46:17;7.53;;;2.28;;
36457;SDS011;22480;50.546;12.292;2022-07-29T11:07:33;5.88;;;2.83;;
36457;SDS011;22480;50.546;12.292;2022-07-29T11:15:10;5.53;;;3.03;;
36457;SDS011;22480;50.546;12.292;2022-07-29T11:23:19;3.20;;;2.72;;
36457;SDS011;22480;50.546;12.292;2022-07-29T11:28:50;5.63;;;2.90;;
36457;SDS011;22480;50.546;12.292;2022-07-29T11:31:18;4.95;;;2.22;;
36457;SDS011;22480;50.546;12.292;2022-07-29T11:34:22;2.95;;;2.65;;
36457;SDS011;22480;50.546;12.292;2022-07-29T11:47:37;3.90;;;2.97;;
36457;SDS011;22480;50.546;12.292;2022-07-29T11:50:05;4.88;;;2.58;;
36457;SDS011;22480;50.546;12.292;2022-07-29T11:52:37;4.32;;;2.53;;
36457;SDS011;22480;50.546;12.292;2022-07-29T11:55:17;5.70;;;2.53;;
36457;SDS011;22480;50.546;12.292;2022-07-29T11:57:54;3.15;;;2.58;;
36457;SDS011;22480;50.546;12.292;2022-07-29T12:00:25;5.65;;;4.05;;
36457;SDS011;22480;50.546;12.292;2022-07-29T12:02:51;3.17;;;2.58;;
36457;SDS011;22480;50.546;12.292;2022-07-29T12:05:17;6.55;;;3.22;;
36457;SDS011;22480;50.546;12.292;2022-07-29T12:07:43;2.97;;;2.60;;
36457;SDS011;22480;50.546;12.292;2022-07-29T12:10:09;4.85;;;2.70;;
36457;SDS011;22480;50.546;12.292;2022-07-29T12:12:35;3.42;;;2.40;;
36457;SDS011;22480;50.546;12.292;2022-07-29T12:15:17;7.70;;;2.67;;
36457;SDS011;22480;50.546;12.292;2022-07-29T12:17:45;5.57;;;2.58;;
36457;SDS011;22480;50.546;12.292;2022-07-29T12:20:13;5.20;;;2.22;;
36457;SDS011;22480;50.546;12.292;2022-07-29T12:22:53;6.85;;;3.38;;
36457;SDS011;22480;50.546;12.292;2022-07-29T12:25:20;4.82;;;2.63;;
36457;SDS011;22480;50.546;12.292;2022-07-29T12:27:47;4.18;;;2.10;;
36457;SDS011;22480;50.546;12.292;2022-07-29T12:30:22;4.63;;;2.95;;
36457;SDS011;22480;50.546;12.292;2022-07-29T12:32:58;3.38;;;2.67;;
36457;SDS011;22480;50.546;12.292;2022-07-29T12:35:24;4.88;;;2.30;;
36457;SDS011;22480;50.546;12.292;2022-07-29T12:37:50;6.07;;;2.58;;
36457;SDS011;22480;50.546;12.292;2022-07-29T12:40:17;5.97;;;2.63;;
36457;SDS011;22480;50.546;12.292;2022-07-29T12:45:32;3.55;;;2.50;;
36457;SDS011;22480;50.546;12.292;2022-07-29T12:47:58;5.97;;;2.78;;
36457;SDS011;22480;50.546;12.292;2022-07-29T12:50:23;4.22;;;2.65;;
36457;SDS011;22480;50.546;12.292;2022-07-29T12:52:50;4.75;;;3.13;;
36457;SDS011;22480;50.546;12.292;2022-07-29T12:55:16;2.60;;;2.40;;
36457;SDS011;22480;50.546;12.292;2022-07-29T12:58:05;5.95;;;2.58;;
36457;SDS011;22480;50.546;12.292;2022-07-29T13:00:31;6.88;;;2.60;;
36457;SDS011;22480;50.546;12.292;2022-07-29T13:02:58;3.42;;;2.70;;
36457;SDS011;22480;50.546;12.292;2022-07-29T13:05:38;5.90;;;2.90;;
36457;SDS011;22480;50.546;12.292;2022-07-29T13:08:15;7.25;;;2.80;;
36457;SDS011;22480;50.546;12.292;2022-07-29T13:10:44;4.72;;;2.70;;
36457;SDS011;22480;50.546;12.292;2022-07-29T13:13:12;5.75;;;2.53;;
36457;SDS011;22480;50.546;12.292;2022-07-29T13:15:41;4.53;;;2.60;;
36457;SDS011;22480;50.546;12.292;2022-07-29T13:20:54;5.40;;;2.75;;
36457;SDS011;22480;50.546;12.292;2022-07-29T13:23:20;9.90;;;2.72;;
36457;SDS011;22480;50.546;12.292;2022-07-29T13:25:46;7.18;;;3.35;;
36457;SDS011;22480;50.546;12.292;2022-07-29T13:28:12;6.32;;;3.58;;
36457;SDS011;22480;50.546;12.292;2022-07-29T13:30:39;6.82;;;3.10;;
36457;SDS011;22480;50.546;12.292;2022-07-29T13:33:05;4.68;;;2.72;;
36457;SDS011;22480;50.546;12.292;2022-07-29T13:35:31;13.98;;;4.38;;
36457;SDS011;22480;50.546;12.292;2022-07-29T13:37:57;8.40;;;3.97;;
36457;SDS011;22480;50.546;12.292;2022-07-29T13:40:23;19.55;;;5.30;;
36457;SDS011;22480;50.546;12.292;2022-07-29T13:42:49;23.00;;;7.72;;
36457;SDS011;22480;50.546;12.292;2022-07-29T13:45:15;12.50;;;6.78;;
36457;SDS011;22480;50.546;12.292;2022-07-29T13:47:40;13.23;;;6.93;;
36457;SDS011;22480;50.546;12.292;2022-07-29T13:50:07;15.95;;;6.28;;
36457;SDS011;22480;50.546;12.292;2022-07-29T13:52:34;7.50;;;5.90;;
36457;SDS011;22480;50.546;12.292;2022-07-29T13:55:01;13.95;;;7.88;;
36457;SDS011;22480;50.546;12.292;2022-07-29T13:57:27;9.88;;;8.02;;
36457;SDS011;22480;50.546;12.292;2022-07-29T13:59:53;9.23;;;6.85;;
36457;SDS011;22480;50.546;12.292;2022-07-29T14:02:19;10.43;;;6.03;;
36457;SDS011;22480;50.546;12.292;2022-07-29T14:04:45;7.15;;;6.45;;
36457;SDS011;22480;50.546;12.292;2022-07-29T14:07:11;10.32;;;8.10;;
36457;SDS011;22480;50.546;12.292;2022-07-29T14:09:37;9.85;;;7.68;;
36457;SDS011;22480;50.546;12.292;2022-07-29T14:12:03;10.80;;;8.70;;
36457;SDS011;22480;50.546;12.292;2022-07-29T14:14:28;10.98;;;7.78;;
36457;SDS011;22480;50.546;12.292;2022-07-29T14:16:56;9.70;;;8.65;;
36457;SDS011;22480;50.546;12.292;2022-07-29T14:19:22;9.40;;;8.05;;
36457;SDS011;22480;50.546;12.292;2022-07-29T14:21:47;9.45;;;8.45;;
36457;SDS011;22480;50.546;12.292;2022-07-29T14:24:13;10.73;;;9.25;;
36457;SDS011;22480;50.546;12.292;2022-07-29T14:26:39;9.88;;;8.15;;
36457;SDS011;22480;50.546;12.292;2022-07-29T14:29:04;10.57;;;8.30;;
36457;SDS011;22480;50.546;12.292;2022-07-29T14:31:30;13.90;;;9.43;;
36457;SDS011;22480;50.546;12.292;2022-07-29T14:33:55;15.15;;;10.65;;
36457;SDS011;22480;50.546;12.292;2022-07-29T14:36:21;11.38;;;9.38;;
36457;SDS011;22480;50.546;12.292;2022-07-29T14:38:47;11.57;;;9.73;;
36457;SDS011;22480;50.546;12.292;2022-07-29T14:41:12;12.23;;;9.30;;
36457;SDS011;22480;50.546;12.292;2022-07-29T14:43:38;12.45;;;8.88;;
36457;SDS011;22480;50.546;12.292;2022-07-29T14:46:04;12.48;;;8.88;;
36457;SDS011;22480;50.546;12.292;2022-07-29T14:48:29;12.13;;;8.43;;
36457;SDS011;22480;50.546;12.292;2022-07-29T14:50:55;9.73;;;7.47;;
36457;SDS011;22480;50.546;12.292;2022-07-29T14:53:21;10.43;;;6.80;;
36457;SDS011;22480;50.546;12.292;2022-07-29T14:55:47;9.32;;;8.43;;
36457;SDS011;22480;50.546;12.292;2022-07-29T14:58:13;8.60;;;5.97;;
36457;SDS011;22480;50.546;12.292;2022-07-29T15:00:39;8.68;;;7.10;;
36457;SDS011;22480;50.546;12.292;2022-07-29T15:03:04;9.70;;;7.28;;
36457;SDS011;22480;50.546;12.292;2022-07-29T15:05:31;9.75;;;7.35;;
36457;SDS011;22480;50.546;12.292;2022-07-29T15:07:57;10.32;;;7.18;;
36457;SDS011;22480;50.546;12.292;2022-07-29T15:10:24;6.93;;;5.90;;
36457;SDS011;22480;50.546;12.292;2022-07-29T15:12:52;6.85;;;5.43;;
36457;SDS011;22480;50.546;12.292;2022-07-29T15:15:18;9.43;;;5.85;;
36457;SDS011;22480;50.546;12.292;2022-07-29T15:17:43;7.75;;;5.25;;
36457;SDS011;22480;50.546;12.292;2022-07-29T15:20:09;8.77;;;5.85;;
36457;SDS011;22480;50.546;12.292;2022-07-29T15:22:36;6.25;;;4.90;;
36457;SDS011;22480;50.546;12.292;2022-07-29T15:25:03;7.30;;;6.07;;
36457;SDS011;22480;50.546;12.292;2022-07-29T15:27:29;6.63;;;4.57;;
36457;SDS011;22480;50.546;12.292;2022-07-29T15:29:55;6.95;;;5.00;;
36457;SDS011;22480;50.546;12.292;2022-07-29T15:32:21;7.78;;;5.68;;
36457;SDS011;22480;50.546;12.292;2022-07-29T15:34:47;7.97;;;4.68;;
36457;SDS011;22480;50.546;12.292;2022-07-29T15:37:12;5.43;;;4.53;;
36457;SDS011;22480;50.546;12.292;2022-07-29T15:39:38;8.75;;;4.97;;
36457;SDS011;22480;50.546;12.292;2022-07-29T15:42:03;5.03;;;4.55;;
36457;SDS011;22480;50.546;12.292;2022-07-29T15:44:29;5.00;;;4.47;;
36457;SDS011;22480;50.546;12.292;2022-07-29T15:46:55;14.00;;;5.35;;
36457;SDS011;22480;50.546;12.292;2022-07-29T15:49:34;12.82;;;5.30;;
36457;SDS011;22480;50.546;12.292;2022-07-29T15:52:02;7.45;;;5.78;;